• Join FlightAware (Why Join?)
  • Login
  • US Flag 
03:51PM EST


 

Airport Tracker/Info


-or-


 

Live Flight TrackerFlight Track Log ✈ EGF3796 ✈ 08-May-2013 ✈ KORD - KXNA

Flight Track Log - Related Links

Times and Time Zones

All times are in EDT time to prevent confusion due to time zone crossing. See the EGF3796 flight status page for this flight to view local times or setup timezone preferences in your user account.

Time Position Orientation Groundspeed Altitude Reporting Facility
EDT Latitude Longitude Course Direction KTS MPH feet Rate Location/Type
06:40PM 41.9167 -87.9167 207° Southwest 174 200 2,300  Level Chicago TRACON
06:41PM 41.8667 -87.9500 206° Southwest 214 246 4,100 1,800 Climbing Chicago TRACON
06:42PM 41.6623 -88.0488 203° Southwest  Level FlightAware Approximate
06:42PM 41.8061 -87.9683 193° South 241 277 6,100  Level Chicago Center
06:43PM 41.5574 -88.1004 197° South  Level FlightAware Approximate
06:43PM 41.7339 -88.0053 201° Southwest 276 318 9,000  Level Chicago Center
06:44PM 41.4501 -88.1433 197° South  Level FlightAware Approximate
06:44PM 41.6456 -88.0522 202° Southwest 286 329 11,800  Level Chicago Center
06:45PM 41.3432 -88.1867 201° Southwest  Level FlightAware Approximate
06:45PM 41.5569 -88.0994 202° Southwest 346 398 12,800  Level Chicago Center
06:46PM 41.2456 -88.2418 207° Southwest  Level FlightAware Approximate
06:46PM 41.4600 -88.1500 201° Southwest 381 438 14,200  Level Chicago Center
06:47PM 41.3381 -88.2106 200° South 407 468 16,100 1,740 Climbing Chicago Center
06:49PM 41.2308 -88.2589 199° South 411 473 17,800 1,560 Climbing Chicago Center
06:50PM 41.1219 -88.3078 199° South 416 479 19,400 1,500 Climbing Chicago Center
06:51PM 41.0106 -88.3578 199° South 424 488 20,900 1,500 Climbing Chicago Center
06:52PM 40.9000 -88.4075 199° South 422 486 22,500 1,620 Climbing Chicago Center
06:53PM 40.7653 -88.4675 199° South 428 493 24,300 1,440 Climbing Chicago Center
06:54PM 40.6539 -88.5219 200° South 429 494 25,600 1,080 Climbing Chicago Center
06:55PM 40.5642 -88.6247 221° Southwest 429 494 26,600 1,140 Climbing Chicago Center
06:56PM 40.4708 -88.7283 220° Southwest 439 505 28,000 1,260 Climbing Chicago Center
06:57PM 40.3767 -88.8339 221° Southwest 435 501 29,300 1,200 Climbing Chicago Center
06:58PM 40.2856 -88.9361 221° Southwest 431 496 30,500 1,020 Climbing Chicago Center
06:59PM 40.1936 -89.0369 220° Southwest 429 494 31,500 900 Climbing Chicago Center
07:00PM 40.1181 -89.1200 220° Southwest 431 496 32,100 900 Climbing Kansas City Center
07:01PM 40.0250 -89.2219 220° Southwest 434 499 33,100 840 Climbing Kansas City Center
07:02PM 39.9325 -89.3244 220° Southwest 435 501 33,900 960 Climbing Kansas City Center
07:03PM 39.8228 -89.4461 220° Southwest 432 497 35,100 1,140 Climbing Kansas City Center
07:04PM 39.7319 -89.5458 220° Southwest 428 493 36,300 1,140 Climbing Kansas City Center
07:05PM 39.6394 -89.6475 220° Southwest 418 481 37,500 780 Climbing Kansas City Center
07:06PM 39.5528 -89.7411 220° Southwest 409 471 38,000 240 Climbing Kansas City Center
07:07PM 39.4642 -89.8353 219° Southwest 412 474 38,000  Level Kansas City Center
07:08PM 39.3722 -89.9353 220° Southwest 427 491 38,000  Level Kansas City Center
07:09PM 39.2781 -90.0367 220° Southwest 438 504 38,000  Level Kansas City Center
07:10PM 39.1822 -90.1394 220° Southwest 447 514 38,000  Level Kansas City Center
07:11PM 39.0672 -90.2631 220° Southwest 451 519 38,000  Level Kansas City Center
07:12PM 38.9728 -90.3636 220° Southwest 446 513 38,000  Level Kansas City Center
07:13PM 38.8758 -90.4694 220° Southwest 442 509 38,000  Level Kansas City Center
07:14PM 38.7917 -90.5850 227° Southwest 442 509 38,000  Level Kansas City Center
07:15PM 38.7203 -90.6939 230° Southwest 440 506 38,000  Level Kansas City Center
07:16PM 38.6264 -90.8319 229° Southwest 436 502 38,000  Level Kansas City Center
07:17PM 38.5475 -90.9489 229° Southwest 437 503 38,000  Level Kansas City Center
07:18PM 38.4681 -91.0658 229° Southwest 438 504 38,000  Level Kansas City Center
07:19PM 38.3892 -91.1825 229° Southwest 436 502 38,000  Level Kansas City Center
07:20PM 38.3092 -91.2994 229° Southwest 439 505 38,000 -300 Level Kansas City Center
07:21PM 38.2172 -91.4331 229° Southwest 438 504 37,400 -660 Descending Kansas City Center
07:22PM 38.1353 -91.5528 229° Southwest 443 510 36,700 -840 Descending Kansas City Center
07:23PM 38.0522 -91.6736 229° Southwest 448 516 35,700 -1,260 Descending Kansas City Center
07:24PM 37.9717 -91.7903 229° Southwest 437 503 34,100 -1,500 Descending Kansas City Center
07:25PM 37.8925 -91.9067 229° Southwest 430 495 32,600 -1,560 Descending Kansas City Center
07:26PM 37.8103 -92.0250 229° Southwest 436 502 30,900 -1,740 Descending Kansas City Center
07:27PM 37.7264 -92.1447 228° Southwest 455 524 29,100 -1,740 Descending Kansas City Center
07:28PM 37.6258 -92.2881 228° Southwest 443 510 27,400 -1,140 Descending Kansas City Center
07:30PM 37.5442 -92.4042 228° Southwest 440 506 26,800 -840 Descending Kansas City Center
07:31PM 37.4633 -92.5189 228° Southwest 436 502 25,700 -1,500 Descending Kansas City Center
07:32PM 37.3892 -92.6356 231° Southwest 428 493 23,800 -1,800 Descending Kansas City Center
07:33PM 37.3067 -92.7456 227° Southwest 435 501 22,100 -1,260 Descending Kansas City Center
07:34PM 37.2225 -92.8544 226° Southwest 435 501 21,300 -780 Descending Kansas City Center
07:35PM 37.1431 -92.9642 228° Southwest 427 491 20,500 -900 Descending Kansas City Center
07:36PM 37.0642 -93.0769 229° Southwest 426 490 19,500 -1,560 Descending Kansas City Center
07:37PM 36.9836 -93.1867 227° Southwest 428 493 17,400 -1,740 Descending Kansas City Center
07:38PM 36.8939 -93.3100 228° Southwest 404 465 16,000 -1,140 Descending Kansas City Center
07:39PM 36.8300 -93.3903 225° Southwest 395 455 15,100 -1,080 Descending Kansas City Center
07:40PM 36.7394 -93.5069 226° Southwest 393 452 13,900 -1,080 Descending Kansas City Center
07:41PM 36.6767 -93.6106 233° Southwest 384 442 12,900 -1,020 Descending Kansas City Center
07:42PM 36.6325 -93.7219 244° Southwest 365 420 11,900 -960 Descending Kansas City Center
07:43PM 36.5894 -93.8261 243° Southwest 356 410 11,000 -960 Descending Kansas City Center
07:44PM 36.5450 -93.9364 243° Southwest 356 410 10,000 -840 Descending Kansas City Center
07:45PM 36.4978 -94.0483 242° Southwest 304 350 9,300 -1,320 Descending Kansas City Center
07:46PM 36.4650 -94.1308 244° Southwest 272 313 7,300 -1,860 Descending Kansas City Center
07:47PM 36.4311 -94.2106 242° Southwest 265 305 5,500 -1,800 Descending Kansas City Center